sensor_id;sensor_type;location;lat;lon;timestamp;P1;durP1;ratioP1;P2;durP2;ratioP2
37449;SDS011;23309;52.582;13.406;2023-02-24T00:01:10;39.90;;;17.53;;
37449;SDS011;23309;52.582;13.406;2023-02-24T00:03:37;42.30;;;17.70;;
37449;SDS011;23309;52.582;13.406;2023-02-24T00:06:08;39.97;;;17.13;;
37449;SDS011;23309;52.582;13.406;2023-02-24T00:08:38;41.77;;;17.30;;
37449;SDS011;23309;52.582;13.406;2023-02-24T00:11:07;38.30;;;17.27;;
37449;SDS011;23309;52.582;13.406;2023-02-24T00:13:34;41.50;;;18.00;;
37449;SDS011;23309;52.582;13.406;2023-02-24T00:16:01;42.57;;;18.40;;
37449;SDS011;23309;52.582;13.406;2023-02-24T00:18:28;37.03;;;17.70;;
37449;SDS011;23309;52.582;13.406;2023-02-24T00:20:56;36.60;;;16.30;;
37449;SDS011;23309;52.582;13.406;2023-02-24T00:23:27;40.60;;;16.63;;
37449;SDS011;23309;52.582;13.406;2023-02-24T00:25:59;36.50;;;17.00;;
37449;SDS011;23309;52.582;13.406;2023-02-24T00:28:26;35.90;;;16.27;;
37449;SDS011;23309;52.582;13.406;2023-02-24T00:30:52;40.00;;;17.63;;
37449;SDS011;23309;52.582;13.406;2023-02-24T00:33:20;29.93;;;14.80;;
37449;SDS011;23309;52.582;13.406;2023-02-24T00:35:49;36.20;;;14.80;;
37449;SDS011;23309;52.582;13.406;2023-02-24T00:38:15;33.23;;;15.00;;
37449;SDS011;23309;52.582;13.406;2023-02-24T00:40:41;34.63;;;15.43;;
37449;SDS011;23309;52.582;13.406;2023-02-24T00:43:12;37.33;;;16.20;;
37449;SDS011;23309;52.582;13.406;2023-02-24T00:45:38;36.13;;;14.30;;
37449;SDS011;23309;52.582;13.406;2023-02-24T00:48:04;31.70;;;13.53;;
37449;SDS011;23309;52.582;13.406;2023-02-24T00:50:30;30.57;;;12.77;;
37449;SDS011;23309;52.582;13.406;2023-02-24T00:52:56;26.33;;;12.30;;
37449;SDS011;23309;52.582;13.406;2023-02-24T00:55:21;30.20;;;13.33;;
37449;SDS011;23309;52.582;13.406;2023-02-24T00:57:47;25.00;;;10.80;;
37449;SDS011;23309;52.582;13.406;2023-02-24T01:00:16;26.03;;;10.57;;
37449;SDS011;23309;52.582;13.406;2023-02-24T01:02:43;27.03;;;10.23;;
37449;SDS011;23309;52.582;13.406;2023-02-24T01:05:10;21.60;;;9.33;;
37449;SDS011;23309;52.582;13.406;2023-02-24T01:07:36;22.70;;;9.80;;
37449;SDS011;23309;52.582;13.406;2023-02-24T01:10:03;17.93;;;7.37;;
37449;SDS011;23309;52.582;13.406;2023-02-24T01:12:32;19.93;;;6.90;;
37449;SDS011;23309;52.582;13.406;2023-02-24T01:15:15;20.70;;;7.90;;
37449;SDS011;23309;52.582;13.406;2023-02-24T01:17:43;13.73;;;6.03;;
37449;SDS011;23309;52.582;13.406;2023-02-24T01:20:09;15.10;;;5.87;;
37449;SDS011;23309;52.582;13.406;2023-02-24T01:22:40;24.37;;;5.80;;
37449;SDS011;23309;52.582;13.406;2023-02-24T01:25:07;13.97;;;5.60;;
37449;SDS011;23309;52.582;13.406;2023-02-24T01:27:33;16.63;;;5.13;;
37449;SDS011;23309;52.582;13.406;2023-02-24T01:30:01;18.00;;;4.60;;
37449;SDS011;23309;52.582;13.406;2023-02-24T01:32:28;14.20;;;3.90;;
37449;SDS011;23309;52.582;13.406;2023-02-24T01:34:55;15.13;;;4.27;;
37449;SDS011;23309;52.582;13.406;2023-02-24T01:37:21;14.90;;;3.90;;
37449;SDS011;23309;52.582;13.406;2023-02-24T01:39:48;9.87;;;3.40;;
37449;SDS011;23309;52.582;13.406;2023-02-24T01:42:16;18.10;;;3.57;;
37449;SDS011;23309;52.582;13.406;2023-02-24T01:47:09;13.60;;;3.37;;
37449;SDS011;23309;52.582;13.406;2023-02-24T01:49:39;10.73;;;2.63;;
37449;SDS011;23309;52.582;13.406;2023-02-24T01:54:37;23.90;;;3.83;;
37449;SDS011;23309;52.582;13.406;2023-02-24T01:57:12;10.90;;;3.10;;
37449;SDS011;23309;52.582;13.406;2023-02-24T01:59:40;13.17;;;2.83;;
37449;SDS011;23309;52.582;13.406;2023-02-24T02:02:06;11.63;;;2.43;;
37449;SDS011;23309;52.582;13.406;2023-02-24T02:04:47;10.10;;;2.47;;
37449;SDS011;23309;52.582;13.406;2023-02-24T02:07:16;8.57;;;3.00;;
37449;SDS011;23309;52.582;13.406;2023-02-24T02:09:44;17.50;;;3.00;;
37449;SDS011;23309;52.582;13.406;2023-02-24T02:12:11;13.80;;;2.93;;
37449;SDS011;23309;52.582;13.406;2023-02-24T02:14:37;12.47;;;2.83;;
37449;SDS011;23309;52.582;13.406;2023-02-24T02:31:22;15.17;;;3.30;;
37449;SDS011;23309;52.582;13.406;2023-02-24T02:34:29;12.30;;;2.70;;
37449;SDS011;23309;52.582;13.406;2023-02-24T02:37:09;16.77;;;3.00;;
37449;SDS011;23309;52.582;13.406;2023-02-24T02:42:27;16.70;;;2.70;;
37449;SDS011;23309;52.582;13.406;2023-02-24T02:45:05;11.03;;;2.97;;
37449;SDS011;23309;52.582;13.406;2023-02-24T02:47:47;13.13;;;3.27;;
37449;SDS011;23309;52.582;13.406;2023-02-24T02:52:53;10.30;;;2.60;;
37449;SDS011;23309;52.582;13.406;2023-02-24T02:55:36;13.63;;;2.50;;
37449;SDS011;23309;52.582;13.406;2023-02-24T02:58:06;9.13;;;2.27;;
37449;SDS011;23309;52.582;13.406;2023-02-24T03:00:37;16.03;;;2.60;;
37449;SDS011;23309;52.582;13.406;2023-02-24T12:43:44;4.60;;;1.50;;
37449;SDS011;23309;52.582;13.406;2023-02-24T12:46:29;4.30;;;1.20;;
37449;SDS011;23309;52.582;13.406;2023-02-24T12:54:40;4.93;;;1.20;;
37449;SDS011;23309;52.582;13.406;2023-02-24T12:57:37;1.40;;;1.30;;
37449;SDS011;23309;52.582;13.406;2023-02-24T13:00:13;5.73;;;1.80;;
37449;SDS011;23309;52.582;13.406;2023-02-24T13:03:00;5.40;;;1.33;;
37449;SDS011;23309;52.582;13.406;2023-02-24T13:05:54;2.87;;;1.40;;
37449;SDS011;23309;52.582;13.406;2023-02-24T13:08:42;1.87;;;1.20;;
37449;SDS011;23309;52.582;13.406;2023-02-24T13:11:12;8.33;;;1.27;;
37449;SDS011;23309;52.582;13.406;2023-02-24T13:16:10;2.57;;;1.30;;
37449;SDS011;23309;52.582;13.406;2023-02-24T13:18:36;1.40;;;1.23;;
37449;SDS011;23309;52.582;13.406;2023-02-24T13:23:54;4.37;;;1.47;;
37449;SDS011;23309;52.582;13.406;2023-02-24T13:26:25;4.70;;;1.30;;
37449;SDS011;23309;52.582;13.406;2023-02-24T13:29:11;2.27;;;1.50;;
37449;SDS011;23309;52.582;13.406;2023-02-24T13:31:40;1.80;;;1.40;;
37449;SDS011;23309;52.582;13.406;2023-02-24T13:34:32;3.10;;;1.43;;
37449;SDS011;23309;52.582;13.406;2023-02-24T13:37:07;3.90;;;1.47;;
37449;SDS011;23309;52.582;13.406;2023-02-24T13:39:34;2.93;;;1.20;;
37449;SDS011;23309;52.582;13.406;2023-02-24T13:44:52;3.03;;;1.53;;
37449;SDS011;23309;52.582;13.406;2023-02-24T13:53:39;2.20;;;1.50;;
37449;SDS011;23309;52.582;13.406;2023-02-24T13:56:39;3.37;;;1.50;;
37449;SDS011;23309;52.582;13.406;2023-02-24T13:59:22;2.90;;;1.33;;
37449;SDS011;23309;52.582;13.406;2023-02-24T14:02:17;4.20;;;1.60;;
37449;SDS011;23309;52.582;13.406;2023-02-24T14:04:46;3.53;;;1.43;;
37449;SDS011;23309;52.582;13.406;2023-02-24T14:07:22;2.83;;;1.53;;
37449;SDS011;23309;52.582;13.406;2023-02-24T14:09:56;5.77;;;1.60;;
37449;SDS011;23309;52.582;13.406;2023-02-24T14:12:25;3.60;;;2.03;;
37449;SDS011;23309;52.582;13.406;2023-02-24T14:14:53;1.63;;;1.30;;
37449;SDS011;23309;52.582;13.406;2023-02-24T14:17:20;1.63;;;1.53;;
37449;SDS011;23309;52.582;13.406;2023-02-24T14:20:37;5.57;;;2.07;;
37449;SDS011;23309;52.582;13.406;2023-02-24T14:22:45;4.27;;;1.83;;
37449;SDS011;23309;52.582;13.406;2023-02-24T14:25:12;2.77;;;1.60;;
37449;SDS011;23309;52.582;13.406;2023-02-24T14:27:41;2.07;;;1.80;;
37449;SDS011;23309;52.582;13.406;2023-02-24T14:33:00;2.20;;;1.70;;
37449;SDS011;23309;52.582;13.406;2023-02-24T14:35:38;1.60;;;1.43;;
37449;SDS011;23309;52.582;13.406;2023-02-24T14:38:16;2.43;;;1.67;;
37449;SDS011;23309;52.582;13.406;2023-02-24T14:41:05;2.20;;;1.63;;
37449;SDS011;23309;52.582;13.406;2023-02-24T14:43:38;4.33;;;2.03;;
37449;SDS011;23309;52.582;13.406;2023-02-24T14:46:05;2.80;;;1.60;;
37449;SDS011;23309;52.582;13.406;2023-02-24T14:48:30;2.00;;;1.67;;
37449;SDS011;23309;52.582;13.406;2023-02-24T14:50:58;1.77;;;1.67;;
37449;SDS011;23309;52.582;13.406;2023-02-24T14:53:27;1.87;;;1.77;;
37449;SDS011;23309;52.582;13.406;2023-02-24T14:55:53;2.50;;;1.60;;
37449;SDS011;23309;52.582;13.406;2023-02-24T14:58:21;2.40;;;1.80;;
37449;SDS011;23309;52.582;13.406;2023-02-24T15:00:54;3.30;;;1.87;;
37449;SDS011;23309;52.582;13.406;2023-02-24T15:03:24;3.30;;;1.53;;
37449;SDS011;23309;52.582;13.406;2023-02-24T15:05:58;2.00;;;1.50;;
37449;SDS011;23309;52.582;13.406;2023-02-24T15:10:59;2.50;;;1.60;;
37449;SDS011;23309;52.582;13.406;2023-02-24T15:13:36;2.60;;;1.60;;
37449;SDS011;23309;52.582;13.406;2023-02-24T15:16:04;1.33;;;1.27;;
37449;SDS011;23309;52.582;13.406;2023-02-24T15:18:36;3.33;;;1.63;;
37449;SDS011;23309;52.582;13.406;2023-02-24T15:21:02;2.20;;;1.47;;
37449;SDS011;23309;52.582;13.406;2023-02-24T15:23:31;2.23;;;1.47;;
37449;SDS011;23309;52.582;13.406;2023-02-24T15:26:00;2.30;;;1.50;;
37449;SDS011;23309;52.582;13.406;2023-02-24T15:28:30;1.60;;;1.33;;
37449;SDS011;23309;52.582;13.406;2023-02-24T15:31:02;1.60;;;1.50;;
37449;SDS011;23309;52.582;13.406;2023-02-24T15:33:42;1.67;;;1.43;;
37449;SDS011;23309;52.582;13.406;2023-02-24T15:36:10;4.27;;;1.60;;
37449;SDS011;23309;52.582;13.406;2023-02-24T15:38:41;1.50;;;1.40;;
37449;SDS011;23309;52.582;13.406;2023-02-24T15:41:08;1.30;;;1.20;;
37449;SDS011;23309;52.582;13.406;2023-02-24T15:43:44;1.70;;;1.60;;
37449;SDS011;23309;52.582;13.406;2023-02-24T15:46:12;1.77;;;1.67;;
37449;SDS011;23309;52.582;13.406;2023-02-24T15:48:46;1.47;;;1.33;;
37449;SDS011;23309;52.582;13.406;2023-02-24T15:51:19;1.77;;;1.20;;
37449;SDS011;23309;52.582;13.406;2023-02-24T15:53:50;1.70;;;1.60;;
37449;SDS011;23309;52.582;13.406;2023-02-24T15:56:16;2.70;;;1.50;;
37449;SDS011;23309;52.582;13.406;2023-02-24T15:58:42;1.20;;;1.20;;
37449;SDS011;23309;52.582;13.406;2023-02-24T16:01:08;2.27;;;1.37;;
37449;SDS011;23309;52.582;13.406;2023-02-24T16:03:35;1.60;;;1.50;;
37449;SDS011;23309;52.582;13.406;2023-02-24T16:06:00;1.80;;;1.47;;
37449;SDS011;23309;52.582;13.406;2023-02-24T16:08:26;1.93;;;1.80;;
37449;SDS011;23309;52.582;13.406;2023-02-24T16:10:51;2.00;;;1.80;;
37449;SDS011;23309;52.582;13.406;2023-02-24T16:13:18;2.37;;;1.87;;
37449;SDS011;23309;52.582;13.406;2023-02-24T16:15:45;1.90;;;1.80;;
37449;SDS011;23309;52.582;13.406;2023-02-24T16:18:14;2.00;;;1.90;;
37449;SDS011;23309;52.582;13.406;2023-02-24T16:20:43;2.30;;;2.10;;
37449;SDS011;23309;52.582;13.406;2023-02-24T16:23:18;2.70;;;2.20;;
37449;SDS011;23309;52.582;13.406;2023-02-24T16:25:46;3.37;;;2.40;;
37449;SDS011;23309;52.582;13.406;2023-02-24T16:28:13;2.77;;;2.57;;
37449;SDS011;23309;52.582;13.406;2023-02-24T16:30:40;3.10;;;2.27;;
37449;SDS011;23309;52.582;13.406;2023-02-24T16:33:08;2.80;;;2.60;;
37449;SDS011;23309;52.582;13.406;2023-02-24T16:35:37;2.90;;;2.67;;
37449;SDS011;23309;52.582;13.406;2023-02-24T16:38:05;5.57;;;2.30;;
37449;SDS011;23309;52.582;13.406;2023-02-24T16:40:34;3.57;;;2.73;;
37449;SDS011;23309;52.582;13.406;2023-02-24T16:43:01;4.97;;;2.60;;
37449;SDS011;23309;52.582;13.406;2023-02-24T16:45:28;3.60;;;2.90;;
37449;SDS011;23309;52.582;13.406;2023-02-24T16:47:55;4.17;;;3.27;;
37449;SDS011;23309;52.582;13.406;2023-02-24T16:50:28;3.20;;;2.87;;
37449;SDS011;23309;52.582;13.406;2023-02-24T16:52:59;3.23;;;2.70;;
37449;SDS011;23309;52.582;13.406;2023-02-24T16:55:24;3.03;;;2.80;;
37449;SDS011;23309;52.582;13.406;2023-02-24T16:57:50;3.90;;;3.10;;
37449;SDS011;23309;52.582;13.406;2023-02-24T17:00:16;4.40;;;2.90;;
37449;SDS011;23309;52.582;13.406;2023-02-24T17:02:45;4.67;;;3.63;;
37449;SDS011;23309;52.582;13.406;2023-02-24T17:05:19;5.27;;;3.20;;
37449;SDS011;23309;52.582;13.406;2023-02-24T17:07:47;6.50;;;3.40;;
37449;SDS011;23309;52.582;13.406;2023-02-24T17:10:13;3.30;;;3.00;;
37449;SDS011;23309;52.582;13.406;2023-02-24T17:12:39;4.23;;;3.20;;
37449;SDS011;23309;52.582;13.406;2023-02-24T17:15:05;3.30;;;3.00;;
37449;SDS011;23309;52.582;13.406;2023-02-24T17:17:33;4.70;;;3.70;;
37449;SDS011;23309;52.582;13.406;2023-02-24T17:19:59;6.37;;;3.90;;
37449;SDS011;23309;52.582;13.406;2023-02-24T17:22:25;4.93;;;3.23;;
37449;SDS011;23309;52.582;13.406;2023-02-24T17:24:51;5.53;;;3.70;;
37449;SDS011;23309;52.582;13.406;2023-02-24T17:27:17;4.97;;;3.60;;
37449;SDS011;23309;52.582;13.406;2023-02-24T17:29:43;4.43;;;3.33;;
37449;SDS011;23309;52.582;13.406;2023-02-24T17:32:10;3.63;;;3.13;;
37449;SDS011;23309;52.582;13.406;2023-02-24T17:34:35;5.33;;;3.80;;
37449;SDS011;23309;52.582;13.406;2023-02-24T17:37:01;3.97;;;3.50;;
37449;SDS011;23309;52.582;13.406;2023-02-24T17:39:26;6.80;;;3.40;;
37449;SDS011;23309;52.582;13.406;2023-02-24T17:41:52;5.73;;;3.80;;
37449;SDS011;23309;52.582;13.406;2023-02-24T17:44:18;5.50;;;3.83;;
37449;SDS011;23309;52.582;13.406;2023-02-24T17:46:44;5.00;;;3.77;;
37449;SDS011;23309;52.582;13.406;2023-02-24T17:49:10;4.27;;;3.87;;
37449;SDS011;23309;52.582;13.406;2023-02-24T17:51:35;5.27;;;4.00;;
37449;SDS011;23309;52.582;13.406;2023-02-24T17:54:01;5.10;;;4.00;;
37449;SDS011;23309;52.582;13.406;2023-02-24T17:56:26;5.70;;;3.73;;
37449;SDS011;23309;52.582;13.406;2023-02-24T17:58:52;4.67;;;4.10;;
37449;SDS011;23309;52.582;13.406;2023-02-24T18:01:22;4.73;;;4.33;;
37449;SDS011;23309;52.582;13.406;2023-02-24T18:03:51;4.93;;;4.43;;
37449;SDS011;23309;52.582;13.406;2023-02-24T18:06:17;5.10;;;4.60;;
37449;SDS011;23309;52.582;13.406;2023-02-24T18:08:43;5.43;;;4.50;;
37449;SDS011;23309;52.582;13.406;2023-02-24T18:11:10;5.03;;;4.63;;
37449;SDS011;23309;52.582;13.406;2023-02-24T18:13:38;5.77;;;5.07;;
37449;SDS011;23309;52.582;13.406;2023-02-24T18:16:07;6.30;;;5.00;;
37449;SDS011;23309;52.582;13.406;2023-02-24T18:18:34;6.80;;;5.80;;
37449;SDS011;23309;52.582;13.406;2023-02-24T18:21:00;6.40;;;5.10;;
37449;SDS011;23309;52.582;13.406;2023-02-24T18:23:26;8.10;;;4.80;;
37449;SDS011;23309;52.582;13.406;2023-02-24T18:25:52;7.57;;;5.50;;
37449;SDS011;23309;52.582;13.406;2023-02-24T18:28:18;6.30;;;5.70;;
37449;SDS011;23309;52.582;13.406;2023-02-24T18:30:43;6.03;;;5.43;;
37449;SDS011;23309;52.582;13.406;2023-02-24T18:33:09;11.97;;;6.13;;
37449;SDS011;23309;52.582;13.406;2023-02-24T18:35:34;6.90;;;6.20;;
37449;SDS011;23309;52.582;13.406;2023-02-24T18:38:00;6.40;;;5.80;;
37449;SDS011;23309;52.582;13.406;2023-02-24T18:40:27;8.17;;;6.13;;
37449;SDS011;23309;52.582;13.406;2023-02-24T18:42:53;7.50;;;6.53;;
37449;SDS011;23309;52.582;13.406;2023-02-24T18:45:20;10.93;;;6.70;;
37449;SDS011;23309;52.582;13.406;2023-02-24T18:47:46;7.60;;;6.80;;
37449;SDS011;23309;52.582;13.406;2023-02-24T18:50:15;7.43;;;6.70;;
37449;SDS011;23309;52.582;13.406;2023-02-24T18:52:41;7.40;;;6.30;;
37449;SDS011;23309;52.582;13.406;2023-02-24T18:55:06;9.17;;;6.73;;
37449;SDS011;23309;52.582;13.406;2023-02-24T18:57:32;7.07;;;6.37;;
37449;SDS011;23309;52.582;13.406;2023-02-24T18:59:58;8.20;;;7.03;;
37449;SDS011;23309;52.582;13.406;2023-02-24T19:02:23;7.73;;;6.87;;
37449;SDS011;23309;52.582;13.406;2023-02-24T19:04:49;7.53;;;6.53;;
37449;SDS011;23309;52.582;13.406;2023-02-24T19:07:17;10.77;;;7.50;;
37449;SDS011;23309;52.582;13.406;2023-02-24T19:09:45;11.60;;;7.10;;
37449;SDS011;23309;52.582;13.406;2023-02-24T19:12:11;10.30;;;6.70;;
37449;SDS011;23309;52.582;13.406;2023-02-24T19:14:38;8.10;;;7.30;;
37449;SDS011;23309;52.582;13.406;2023-02-24T19:17:04;7.93;;;7.13;;
37449;SDS011;23309;52.582;13.406;2023-02-24T19:19:30;10.90;;;6.60;;
37449;SDS011;23309;52.582;13.406;2023-02-24T19:21:55;8.63;;;7.70;;
37449;SDS011;23309;52.582;13.406;2023-02-24T19:24:21;7.87;;;7.07;;
37449;SDS011;23309;52.582;13.406;2023-02-24T19:26:47;7.37;;;6.67;;
37449;SDS011;23309;52.582;13.406;2023-02-24T19:29:15;8.43;;;7.57;;
37449;SDS011;23309;52.582;13.406;2023-02-24T19:31:42;11.77;;;7.73;;
37449;SDS011;23309;52.582;13.406;2023-02-24T19:34:09;13.93;;;7.83;;
37449;SDS011;23309;52.582;13.406;2023-02-24T19:36:36;8.63;;;7.37;;
37449;SDS011;23309;52.582;13.406;2023-02-24T19:39:02;8.30;;;7.03;;
37449;SDS011;23309;52.582;13.406;2023-02-24T19:41:28;8.53;;;7.67;;
37449;SDS011;23309;52.582;13.406;2023-02-24T19:43:54;12.10;;;7.23;;
37449;SDS011;23309;52.582;13.406;2023-02-24T19:46:20;10.00;;;7.27;;
37449;SDS011;23309;52.582;13.406;2023-02-24T19:48:45;10.27;;;7.60;;
37449;SDS011;23309;52.582;13.406;2023-02-24T19:51:13;8.87;;;7.93;;
37449;SDS011;23309;52.582;13.406;2023-02-24T19:53:39;8.20;;;7.30;;
37449;SDS011;23309;52.582;13.406;2023-02-24T19:56:05;8.90;;;8.00;;
37449;SDS011;23309;52.582;13.406;2023-02-24T19:58:31;11.70;;;8.40;;
37449;SDS011;23309;52.582;13.406;2023-02-24T20:01:05;9.03;;;8.07;;
37449;SDS011;23309;52.582;13.406;2023-02-24T20:03:33;10.20;;;8.30;;
37449;SDS011;23309;52.582;13.406;2023-02-24T20:06:03;10.03;;;7.67;;
37449;SDS011;23309;52.582;13.406;2023-02-24T20:08:29;11.80;;;8.37;;
37449;SDS011;23309;52.582;13.406;2023-02-24T20:11:01;8.73;;;7.70;;
37449;SDS011;23309;52.582;13.406;2023-02-24T20:13:28;9.47;;;8.20;;
37449;SDS011;23309;52.582;13.406;2023-02-24T20:16:04;11.37;;;7.80;;
37449;SDS011;23309;52.582;13.406;2023-02-24T20:18:37;9.03;;;8.17;;
37449;SDS011;23309;52.582;13.406;2023-02-24T20:21:02;11.13;;;7.53;;
37449;SDS011;23309;52.582;13.406;2023-02-24T20:23:28;10.23;;;8.30;;
37449;SDS011;23309;52.582;13.406;2023-02-24T20:25:56;9.80;;;8.30;;
37449;SDS011;23309;52.582;13.406;2023-02-24T20:28:21;10.40;;;8.47;;
37449;SDS011;23309;52.582;13.406;2023-02-24T20:30:48;9.30;;;8.40;;
37449;SDS011;23309;52.582;13.406;2023-02-24T20:33:15;9.10;;;8.20;;
37449;SDS011;23309;52.582;13.406;2023-02-24T20:35:41;8.73;;;7.60;;
37449;SDS011;23309;52.582;13.406;2023-02-24T20:38:07;9.80;;;8.10;;
37449;SDS011;23309;52.582;13.406;2023-02-24T20:40:32;9.63;;;8.20;;
37449;SDS011;23309;52.582;13.406;2023-02-24T20:43:00;10.27;;;7.97;;
37449;SDS011;23309;52.582;13.406;2023-02-24T20:45:30;8.70;;;7.80;;
37449;SDS011;23309;52.582;13.406;2023-02-24T20:47:55;9.27;;;8.30;;
37449;SDS011;23309;52.582;13.406;2023-02-24T20:50:21;9.07;;;8.17;;
37449;SDS011;23309;52.582;13.406;2023-02-24T20:52:47;9.47;;;8.50;;
37449;SDS011;23309;52.582;13.406;2023-02-24T20:55:12;10.80;;;8.97;;
37449;SDS011;23309;52.582;13.406;2023-02-24T20:57:38;10.33;;;8.53;;
37449;SDS011;23309;52.582;13.406;2023-02-24T21:00:04;9.70;;;8.20;;
37449;SDS011;23309;52.582;13.406;2023-02-24T21:02:32;12.30;;;8.40;;
37449;SDS011;23309;52.582;13.406;2023-02-24T21:04:58;10.17;;;8.30;;
37449;SDS011;23309;52.582;13.406;2023-02-24T21:07:24;8.87;;;7.87;;
37449;SDS011;23309;52.582;13.406;2023-02-24T21:09:49;9.73;;;8.73;;
37449;SDS011;23309;52.582;13.406;2023-02-24T21:12:16;9.43;;;8.40;;
37449;SDS011;23309;52.582;13.406;2023-02-24T21:14:42;9.17;;;8.27;;
37449;SDS011;23309;52.582;13.406;2023-02-24T21:17:08;9.13;;;8.23;;
37449;SDS011;23309;52.582;13.406;2023-02-24T21:19:35;8.93;;;8.03;;
37449;SDS011;23309;52.582;13.406;2023-02-24T21:22:01;9.30;;;8.37;;
37449;SDS011;23309;52.582;13.406;2023-02-24T21:24:28;9.60;;;8.63;;
37449;SDS011;23309;52.582;13.406;2023-02-24T21:26:54;9.23;;;8.17;;
37449;SDS011;23309;52.582;13.406;2023-02-24T21:29:20;10.00;;;8.90;;
37449;SDS011;23309;52.582;13.406;2023-02-24T21:31:46;9.40;;;8.50;;
37449;SDS011;23309;52.582;13.406;2023-02-24T21:34:13;10.00;;;8.33;;
37449;SDS011;23309;52.582;13.406;2023-02-24T21:36:42;9.40;;;8.43;;
37449;SDS011;23309;52.582;13.406;2023-02-24T21:39:08;9.60;;;8.60;;
37449;SDS011;23309;52.582;13.406;2023-02-24T21:41:38;9.27;;;7.87;;
37449;SDS011;23309;52.582;13.406;2023-02-24T21:44:11;10.90;;;8.97;;
37449;SDS011;23309;52.582;13.406;2023-02-24T21:46:38;10.77;;;8.30;;
37449;SDS011;23309;52.582;13.406;2023-02-24T21:49:06;10.63;;;8.47;;
37449;SDS011;23309;52.582;13.406;2023-02-24T21:51:33;9.90;;;9.00;;
37449;SDS011;23309;52.582;13.406;2023-02-24T21:53:59;9.53;;;8.40;;
37449;SDS011;23309;52.582;13.406;2023-02-24T21:56:26;11.17;;;9.10;;
37449;SDS011;23309;52.582;13.406;2023-02-24T21:58:56;11.43;;;8.70;;
37449;SDS011;23309;52.582;13.406;2023-02-24T22:01:24;12.90;;;8.60;;
37449;SDS011;23309;52.582;13.406;2023-02-24T22:03:52;12.50;;;8.80;;
37449;SDS011;23309;52.582;13.406;2023-02-24T22:06:18;10.60;;;9.50;;
37449;SDS011;23309;52.582;13.406;2023-02-24T22:08:44;14.13;;;9.70;;
37449;SDS011;23309;52.582;13.406;2023-02-24T22:11:14;11.73;;;9.50;;
37449;SDS011;23309;52.582;13.406;2023-02-24T22:13:41;11.90;;;9.33;;
37449;SDS011;23309;52.582;13.406;2023-02-24T22:16:08;12.03;;;9.50;;
37449;SDS011;23309;52.582;13.406;2023-02-24T22:18:35;13.87;;;9.47;;
37449;SDS011;23309;52.582;13.406;2023-02-24T22:21:08;11.30;;;8.40;;
37449;SDS011;23309;52.582;13.406;2023-02-24T22:23:35;9.20;;;8.30;;
37449;SDS011;23309;52.582;13.406;2023-02-24T22:26:05;11.00;;;9.20;;
37449;SDS011;23309;52.582;13.406;2023-02-24T22:28:35;11.57;;;8.73;;
37449;SDS011;23309;52.582;13.406;2023-02-24T22:31:03;12.67;;;9.73;;
37449;SDS011;23309;52.582;13.406;2023-02-24T22:33:30;9.40;;;7.50;;
37449;SDS011;23309;52.582;13.406;2023-02-24T22:36:00;10.10;;;7.87;;
37449;SDS011;23309;52.582;13.406;2023-02-24T22:38:33;10.23;;;6.57;;
37449;SDS011;23309;52.582;13.406;2023-02-24T22:41:01;9.73;;;7.83;;
37449;SDS011;23309;52.582;13.406;2023-02-24T22:43:28;11.93;;;7.00;;
37449;SDS011;23309;52.582;13.406;2023-02-24T22:45:55;9.10;;;6.87;;
37449;SDS011;23309;52.582;13.406;2023-02-24T22:48:25;8.87;;;7.37;;
37449;SDS011;23309;52.582;13.406;2023-02-24T22:50:52;13.33;;;6.47;;
37449;SDS011;23309;52.582;13.406;2023-02-24T22:53:19;10.53;;;5.90;;
37449;SDS011;23309;52.582;13.406;2023-02-24T22:55:45;10.70;;;6.60;;
37449;SDS011;23309;52.582;13.406;2023-02-24T22:58:11;8.60;;;6.43;;
37449;SDS011;23309;52.582;13.406;2023-02-24T23:00:39;9.20;;;6.37;;
37449;SDS011;23309;52.582;13.406;2023-02-24T23:03:05;8.73;;;5.80;;
37449;SDS011;23309;52.582;13.406;2023-02-24T23:05:31;8.30;;;5.57;;
37449;SDS011;23309;52.582;13.406;2023-02-24T23:07:57;10.83;;;5.73;;
37449;SDS011;23309;52.582;13.406;2023-02-24T23:10:27;7.23;;;4.77;;
37449;SDS011;23309;52.582;13.406;2023-02-24T23:12:53;12.07;;;5.13;;
37449;SDS011;23309;52.582;13.406;2023-02-24T23:15:19;9.97;;;4.47;;
37449;SDS011;23309;52.582;13.406;2023-02-24T23:17:45;11.20;;;4.40;;
37449;SDS011;23309;52.582;13.406;2023-02-24T23:20:13;8.30;;;4.43;;
37449;SDS011;23309;52.582;13.406;2023-02-24T23:22:40;7.73;;;4.70;;
37449;SDS011;23309;52.582;13.406;2023-02-24T23:25:07;10.07;;;4.63;;
37449;SDS011;23309;52.582;13.406;2023-02-24T23:27:36;9.87;;;3.73;;
37449;SDS011;23309;52.582;13.406;2023-02-24T23:30:03;12.67;;;4.20;;
37449;SDS011;23309;52.582;13.406;2023-02-24T23:32:32;8.70;;;3.70;;
37449;SDS011;23309;52.582;13.406;2023-02-24T23:34:58;12.27;;;3.60;;
37449;SDS011;23309;52.582;13.406;2023-02-24T23:37:24;15.57;;;4.20;;
37449;SDS011;23309;52.582;13.406;2023-02-24T23:39:50;11.63;;;3.10;;
37449;SDS011;23309;52.582;13.406;2023-02-24T23:42:16;6.00;;;2.67;;
37449;SDS011;23309;52.582;13.406;2023-02-24T23:44:43;8.03;;;2.80;;
37449;SDS011;23309;52.582;13.406;2023-02-24T23:47:09;7.53;;;2.47;;
37449;SDS011;23309;52.582;13.406;2023-02-24T23:49:35;11.30;;;2.90;;
37449;SDS011;23309;52.582;13.406;2023-02-24T23:52:01;14.90;;;3.43;;
37449;SDS011;23309;52.582;13.406;2023-02-24T23:54:27;9.37;;;3.37;;
37449;SDS011;23309;52.582;13.406;2023-02-24T23:56:52;11.23;;;3.20;;
37449;SDS011;23309;52.582;13.406;2023-02-24T23:59:18;12.40;;;3.37;;
